PSCRJ SBVG-SNLO
Flight info
| Callsign | PSCRJ |
|---|---|
| Flight time | 0h 21m |
| Altitude | 5500 |
| Route | DCT 2147S04516W DCT |
| Aircraft | S76/M-SDFGR/S |
Departure
| Time | 2026-05-08 19:32 |
|---|---|
| Airport | Major Brigadeiro Trompowsky Airport (SBVG) |
Arrival
| Time | 2026-05-08 19:53 |
|---|---|
| Airport | São Lourenço Airport (SNLO) |
| Time | Latitude | Longitude | Altitude | Speed | Heading |
|---|---|---|---|---|---|
| 2026-05-08 19:20 | -21.58816 | -45.47559 | 3032 ft | 0 kts | 191° |
| 2026-05-08 19:25 | -21.58817 | -45.47559 | 3032 ft | 0 kts | 190° |
| 2026-05-08 19:28 | -21.58858 | -45.47553 | 3032 ft | 18 kts | 149° |
| 2026-05-08 19:28 | -21.58914 | -45.47466 | 3032 ft | 9 kts | 102° |
| 2026-05-08 19:28 | -21.58929 | -45.47422 | 3032 ft | 5 kts | 111° |
| 2026-05-08 19:29 | -21.58945 | -45.47377 | 3032 ft | 9 kts | 111° |
| 2026-05-08 19:29 | -21.58950 | -45.47355 | 3047 ft | 5 kts | 100° |
| 2026-05-08 19:29 | -21.58906 | -45.47319 | 3070 ft | 7 kts | 21° |
| 2026-05-08 19:29 | -21.58905 | -45.47317 | 3055 ft | 2 kts | 19° |
| 2026-05-08 19:30 | -21.58901 | -45.47316 | 3049 ft | 2 kts | 15° |
| 2026-05-08 19:30 | -21.58907 | -45.47320 | 3053 ft | 2 kts | 13° |
| 2026-05-08 19:30 | -21.58907 | -45.47317 | 3053 ft | 2 kts | 9° |
| 2026-05-08 19:30 | -21.58909 | -45.47320 | 3053 ft | 3 kts | 6° |
| 2026-05-08 19:31 | -21.58912 | -45.47319 | 3053 ft | 3 kts | 3° |
| 2026-05-08 19:31 | -21.58904 | -45.47317 | 3053 ft | 2 kts | 360° |
| 2026-05-08 19:31 | -21.58915 | -45.47322 | 3053 ft | 0 kts | 356° |
| 2026-05-08 19:31 | -21.58901 | -45.47316 | 3053 ft | 1 kts | 354° |
| 2026-05-08 19:32 | -21.58912 | -45.47320 | 3053 ft | 2 kts | 351° |
| 2026-05-08 19:32 | -21.58908 | -45.47326 | 3206 ft | 7 kts | 22° |
| 2026-05-08 19:32 | -21.58758 | -45.47275 | 3561 ft | 63 kts | 16° |
| 2026-05-08 19:32 | -21.58162 | -45.47369 | 3857 ft | 104 kts | 335° |
| 2026-05-08 19:33 | -21.57335 | -45.47491 | 4056 ft | 141 kts | 7° |
| 2026-05-08 19:33 | -21.56497 | -45.46902 | 3908 ft | 150 kts | 51° |
| 2026-05-08 19:33 | -21.56191 | -45.45847 | 3771 ft | 151 kts | 91° |
| 2026-05-08 19:33 | -21.56553 | -45.44866 | 3810 ft | 134 kts | 131° |
| 2026-05-08 19:34 | -21.57169 | -45.44180 | 4336 ft | 126 kts | 135° |
| 2026-05-08 19:34 | -21.57803 | -45.43465 | 4612 ft | 144 kts | 135° |
| 2026-05-08 19:34 | -21.58517 | -45.42697 | 4543 ft | 147 kts | 136° |
| 2026-05-08 19:34 | -21.59240 | -45.41925 | 4513 ft | 146 kts | 136° |
| 2026-05-08 19:35 | -21.59959 | -45.41157 | 4502 ft | 146 kts | 136° |
| 2026-05-08 19:35 | -21.60675 | -45.40394 | 4498 ft | 146 kts | 136° |
| 2026-05-08 19:35 | -21.61392 | -45.39629 | 4496 ft | 145 kts | 136° |
| 2026-05-08 19:35 | -21.62110 | -45.38863 | 4497 ft | 145 kts | 136° |
| 2026-05-08 19:36 | -21.62829 | -45.38096 | 4495 ft | 146 kts | 136° |
| 2026-05-08 19:36 | -21.63545 | -45.37332 | 4496 ft | 146 kts | 136° |
| 2026-05-08 19:36 | -21.64266 | -45.36562 | 4497 ft | 146 kts | 136° |
| 2026-05-08 19:36 | -21.64985 | -45.35795 | 4495 ft | 146 kts | 136° |
| 2026-05-08 19:37 | -21.65704 | -45.35028 | 4496 ft | 146 kts | 136° |
| 2026-05-08 19:37 | -21.66423 | -45.34261 | 4497 ft | 146 kts | 136° |
| 2026-05-08 19:37 | -21.67139 | -45.33496 | 4495 ft | 146 kts | 136° |
| 2026-05-08 19:37 | -21.67860 | -45.32726 | 4497 ft | 146 kts | 136° |
| 2026-05-08 19:38 | -21.68572 | -45.31965 | 4496 ft | 146 kts | 136° |
| 2026-05-08 19:38 | -21.69295 | -45.31194 | 4496 ft | 146 kts | 136° |
| 2026-05-08 19:38 | -21.70015 | -45.30425 | 4497 ft | 146 kts | 136° |
| 2026-05-08 19:38 | -21.70741 | -45.29666 | 4494 ft | 146 kts | 139° |
| 2026-05-08 19:39 | -21.71574 | -45.29074 | 4500 ft | 143 kts | 153° |
| 2026-05-08 19:39 | -21.72454 | -45.28570 | 4497 ft | 144 kts | 153° |
| 2026-05-08 19:39 | -21.73344 | -45.28074 | 4496 ft | 144 kts | 154° |
| 2026-05-08 19:39 | -21.74241 | -45.27585 | 4496 ft | 144 kts | 154° |
| 2026-05-08 19:40 | -21.75135 | -45.27168 | 4621 ft | 134 kts | 160° |
| 2026-05-08 19:40 | -21.75982 | -45.26829 | 5020 ft | 128 kts | 161° |
| 2026-05-08 19:40 | -21.76824 | -45.26513 | 5408 ft | 128 kts | 162° |
| 2026-05-08 19:40 | -21.77691 | -45.26213 | 5631 ft | 142 kts | 165° |
| 2026-05-08 19:41 | -21.78673 | -45.25945 | 5456 ft | 138 kts | 167° |
| 2026-05-08 19:41 | -21.79607 | -45.25643 | 5473 ft | 140 kts | 159° |
| 2026-05-08 19:41 | -21.80391 | -45.25205 | 5482 ft | 142 kts | 148° |
| 2026-05-08 19:41 | -21.81244 | -45.24538 | 5490 ft | 142 kts | 144° |
| 2026-05-08 19:42 | -21.82053 | -45.23930 | 5495 ft | 142 kts | 146° |
| 2026-05-08 19:42 | -21.82852 | -45.23304 | 5496 ft | 142 kts | 145° |
| 2026-05-08 19:42 | -21.83662 | -45.22709 | 5492 ft | 142 kts | 147° |
| 2026-05-08 19:42 | -21.84486 | -45.22121 | 5491 ft | 142 kts | 147° |
| 2026-05-08 19:43 | -21.85307 | -45.21534 | 5491 ft | 141 kts | 147° |
| 2026-05-08 19:43 | -21.86125 | -45.20949 | 5493 ft | 141 kts | 147° |
| 2026-05-08 19:43 | -21.86944 | -45.20362 | 5494 ft | 142 kts | 147° |
| 2026-05-08 19:43 | -21.87765 | -45.19775 | 5493 ft | 142 kts | 147° |
| 2026-05-08 19:44 | -21.88583 | -45.19188 | 5493 ft | 142 kts | 147° |
| 2026-05-08 19:44 | -21.89403 | -45.18596 | 5495 ft | 142 kts | 147° |
| 2026-05-08 19:44 | -21.90220 | -45.18007 | 5495 ft | 142 kts | 147° |
| 2026-05-08 19:44 | -21.91037 | -45.17417 | 5496 ft | 142 kts | 147° |
| 2026-05-08 19:45 | -21.91854 | -45.16828 | 5497 ft | 142 kts | 147° |
| 2026-05-08 19:45 | -21.92675 | -45.16235 | 5498 ft | 142 kts | 147° |
| 2026-05-08 19:45 | -21.93498 | -45.15642 | 5494 ft | 142 kts | 147° |
| 2026-05-08 19:45 | -21.94319 | -45.15050 | 5498 ft | 142 kts | 147° |
| 2026-05-08 19:46 | -21.95139 | -45.14459 | 5495 ft | 142 kts | 147° |
| 2026-05-08 19:46 | -21.95955 | -45.13870 | 5498 ft | 142 kts | 147° |
| 2026-05-08 19:46 | -21.97598 | -45.12684 | 5497 ft | 142 kts | 147° |
| 2026-05-08 19:47 | -21.98419 | -45.12096 | 5492 ft | 142 kts | 147° |
| 2026-05-08 19:47 | -21.99241 | -45.11509 | 5490 ft | 142 kts | 147° |
| 2026-05-08 19:47 | -22.00058 | -45.10923 | 5492 ft | 142 kts | 147° |
| 2026-05-08 19:47 | -22.00882 | -45.10331 | 5492 ft | 142 kts | 147° |
| 2026-05-08 19:48 | -22.01699 | -45.09745 | 5493 ft | 142 kts | 147° |
| 2026-05-08 19:48 | -22.02522 | -45.09154 | 5494 ft | 142 kts | 147° |
| 2026-05-08 19:48 | -22.03339 | -45.08568 | 5410 ft | 140 kts | 147° |
| 2026-05-08 19:48 | -22.04140 | -45.07992 | 5316 ft | 138 kts | 147° |
| 2026-05-08 19:49 | -22.04936 | -45.07420 | 5232 ft | 138 kts | 147° |
| 2026-05-08 19:49 | -22.05736 | -45.06845 | 5138 ft | 138 kts | 147° |
| 2026-05-08 19:49 | -22.06531 | -45.06273 | 5043 ft | 137 kts | 147° |
| 2026-05-08 19:49 | -22.07323 | -45.05702 | 4957 ft | 138 kts | 147° |
| 2026-05-08 19:50 | -22.08120 | -45.05126 | 4869 ft | 138 kts | 147° |
| 2026-05-08 19:50 | -22.08909 | -45.04556 | 4785 ft | 138 kts | 147° |
| 2026-05-08 19:50 | -22.09707 | -45.03979 | 4703 ft | 138 kts | 147° |
| 2026-05-08 19:50 | -22.10428 | -45.03305 | 4591 ft | 140 kts | 125° |
| 2026-05-08 19:51 | -22.10612 | -45.02298 | 4456 ft | 141 kts | 81° |
| 2026-05-08 19:51 | -22.10116 | -45.01398 | 4383 ft | 143 kts | 39° |
| 2026-05-08 19:51 | -22.09216 | -45.01001 | 4316 ft | 141 kts | 5° |
| 2026-05-08 19:51 | -22.08236 | -45.00932 | 4314 ft | 142 kts | 0° |
| 2026-05-08 19:52 | -22.07267 | -45.01049 | 4210 ft | 141 kts | 333° |
| 2026-05-08 19:52 | -22.06623 | -45.01774 | 4104 ft | 134 kts | 289° |
| 2026-05-08 19:52 | -22.06626 | -45.02737 | 4045 ft | 130 kts | 246° |
| 2026-05-08 19:52 | -22.07174 | -45.03364 | 3805 ft | 105 kts | 208° |
| 2026-05-08 19:53 | -22.07770 | -45.03689 | 3536 ft | 86 kts | 205° |
| 2026-05-08 19:53 | -22.08246 | -45.03977 | 3247 ft | 72 kts | 207° |
| 2026-05-08 19:53 | -22.08660 | -45.04219 | 3015 ft | 65 kts | 202° |
| 2026-05-08 19:53 | -22.09004 | -45.04417 | 2967 ft | 40 kts | 212° |
| 2026-05-08 19:54 | -22.09143 | -45.04510 | 2887 ft | 9 kts | 210° |
| 2026-05-08 19:54 | -22.09160 | -45.04523 | 2875 ft | 8 kts | 213° |
| 2026-05-08 19:54 | -22.09172 | -45.04524 | 2875 ft | 6 kts | 148° |
| 2026-05-08 19:54 | -22.09183 | -45.04489 | 2875 ft | 0 kts | 104° |